Time;durP1;ratioP1;P1;durP2;ratioP2;P2;SDS_P1;SDS_P2;PMS_P1;PMS_P2;Temp;Humidity;BMP_temperature;BMP_pressure;BME280_temperature;BME280_humidity;BME280_pressure;Samples;Min_cycle;Max_cycle;Signal;HPM_P1;HPM_P2
2022/12/10 04:03:10;;;;;;;14.52;6.63;;;4.90;95.10;;;;;;4934954;23;92047;-70
2022/12/10 04:05:36;;;;;;;13.70;6.68;;;4.80;95.10;;;;;;4820475;29;91822;-70
2022/12/10 04:08:02;;;;;;;14.02;6.90;;;4.80;95.20;;;;;;4819168;29;93437;-69
2022/12/10 04:10:28;;;;;;;18.05;7.13;;;4.80;95.20;;;;;;4812457;29;93312;-69
2022/12/10 04:16:26;;;;;;;13.68;6.70;;;4.80;95.20;;;;;;4819957;29;91702;-69
2022/12/10 04:18:23;;;;;;;12.90;6.25;;;4.80;95.60;;;;;;4814982;29;92189;-69
2022/12/10 04:29:02;;;;;;;16.00;7.20;;;4.80;94.80;;;;;;4802817;29;91411;-69
2022/12/10 04:31:27;;;;;;;14.88;6.63;;;4.70;95.00;;;;;;4802607;29;91990;-70
2022/12/10 04:33:53;;;;;;;14.02;6.45;;;4.60;95.30;;;;;;4813028;29;92518;-70
2022/12/10 04:36:19;;;;;;;17.33;6.75;;;4.50;95.50;;;;;;4821005;29;91820;-70
2022/12/10 04:38:44;;;;;;;15.80;7.10;;;4.60;95.80;;;;;;4820180;29;92290;-69
2022/12/10 04:41:15;;;;;;;14.43;6.65;;;4.50;95.80;;;;;;4802850;29;92170;-70
2022/12/10 04:43:41;;;;;;;;;;;4.50;95.90;;;;;;4811674;29;91833;-70
2022/12/10 04:46:07;;;;;;;13.90;6.22;;;4.60;95.80;;;;;;4810202;29;91399;-72
2022/12/10 04:48:32;;;;;;;14.98;7.57;;;4.60;95.70;;;;;;4819799;29;93007;-71
2022/12/10 04:50:58;;;;;;;14.20;6.47;;;4.60;95.60;;;;;;4820405;29;93000;-69
2022/12/10 04:53:24;;;;;;;16.33;6.80;;;4.70;95.70;;;;;;4820433;29;91988;-70
2022/12/10 04:55:49;;;;;;;14.27;6.68;;;4.80;95.40;;;;;;4819950;29;91693;-69
2022/12/10 04:58:15;;;;;;;15.20;6.55;;;4.80;95.20;;;;;;4814644;29;91608;-70
2022/12/10 05:00:41;;;;;;;14.00;6.05;;;4.70;95.10;;;;;;4815384;29;91632;-69
2022/12/10 05:03:06;;;;;;;15.98;6.60;;;4.70;95.40;;;;;;4798234;29;92297;-70
2022/12/10 05:05:34;;;;;;;13.15;6.20;;;4.70;95.40;;;;;;4801074;29;91015;-71
2022/12/10 05:08:00;;;;;;;13.57;6.20;;;4.80;95.20;;;;;;4792989;29;92302;-71
2022/12/10 05:10:26;;;;;;;14.82;6.43;;;4.90;95.30;;;;;;4798825;29;91994;-71
2022/12/10 05:12:52;;;;;;;14.88;6.40;;;4.90;95.00;;;;;;4805082;29;92405;-71
2022/12/10 05:15:18;;;;;;;12.93;6.00;;;4.90;95.20;;;;;;4801628;29;91399;-71
2022/12/10 05:17:43;;;;;;;17.02;6.35;;;5.00;95.10;;;;;;4803776;29;92201;-71
2022/12/10 05:20:10;;;;;;;13.63;6.10;;;5.10;94.90;;;;;;4808255;29;91337;-71
2022/12/10 05:25:20;;;;;;;13.80;6.15;;;5.20;94.60;;;;;;4803058;29;91291;-70
2022/12/10 05:27:46;;;;;;;12.23;6.47;;;5.20;94.50;;;;;;4799679;29;91716;-71
2022/12/10 05:30:12;;;;;;;13.77;5.88;;;5.20;94.50;;;;;;4791219;29;91223;-71
2022/12/10 05:32:37;;;;;;;14.88;5.93;;;5.20;94.50;;;;;;4813996;29;91749;-70
2022/12/10 05:35:04;;;;;;;15.55;6.28;;;5.30;94.20;;;;;;4805370;29;92654;-71
2022/12/10 05:37:30;;;;;;;12.43;5.72;;;5.20;94.40;;;;;;4803362;29;93735;-71
2022/12/10 05:39:55;;;;;;;13.90;5.85;;;5.20;94.50;;;;;;4804083;29;92888;-71
2022/12/10 05:42:21;;;;;;;12.15;5.93;;;5.20;94.50;;;;;;4814173;29;92017;-71
2022/12/10 05:44:47;;;;;;;11.50;5.85;;;5.20;94.40;;;;;;4798006;29;92317;-71
2022/12/10 05:47:12;;;;;;;12.57;5.78;;;5.20;94.30;;;;;;4810512;29;92955;-71
2022/12/10 05:49:38;;;;;;;13.20;6.68;;;5.20;94.20;;;;;;4807992;29;92406;-71
2022/12/10 05:52:04;;;;;;;11.60;5.72;;;5.20;94.20;;;;;;4804494;29;91752;-71
2022/12/10 05:54:29;;;;;;;11.43;5.85;;;5.20;94.20;;;;;;4805172;29;91140;-71
2022/12/10 05:56:55;;;;;;;11.43;6.10;;;5.20;94.40;;;;;;4811438;29;92708;-71
2022/12/10 05:59:21;;;;;;;12.75;5.75;;;5.20;94.40;;;;;;4804146;29;91749;-71
2022/12/10 06:01:46;;;;;;;12.00;5.78;;;5.20;94.40;;;;;;4798278;29;93219;-71
2022/12/10 06:04:13;;;;;;;10.48;5.72;;;5.10;94.60;;;;;;4808047;29;91486;-71
2022/12/10 06:06:39;;;;;;;10.70;5.22;;;5.10;94.40;;;;;;4813760;29;92181;-71
2022/12/10 06:09:07;;;;;;;13.73;5.20;;;5.10;94.50;;;;;;4813782;29;91386;-70
2022/12/10 06:11:33;;;;;;;12.23;6.07;;;5.10;94.50;;;;;;4800500;29;91446;-70
2022/12/10 06:14:01;;;;;;;13.90;6.10;;;5.00;94.80;;;;;;4800010;29;91905;-70
2022/12/10 06:16:27;;;;;;;14.15;6.45;;;5.10;94.80;;;;;;4804167;29;92317;-70
2022/12/10 06:18:54;;;;;;;12.80;6.40;;;5.10;94.80;;;;;;4798984;29;91188;-72
2022/12/10 06:21:20;;;;;;;12.90;6.32;;;5.10;94.80;;;;;;4802466;29;91301;-72
2022/12/10 06:23:47;;;;;;;13.88;6.53;;;5.10;94.90;;;;;;4803836;29;91751;-71
2022/12/10 06:26:16;;;;;;;14.95;6.97;;;5.00;94.90;;;;;;4801567;29;93286;-69
2022/12/10 06:28:44;;;;;;;15.88;6.97;;;4.90;95.00;;;;;;4804259;29;92975;-70
2022/12/10 06:31:10;;;;;;;14.43;6.85;;;4.90;95.00;;;;;;4804704;29;91415;-70
2022/12/10 06:33:36;;;;;;;15.27;7.32;;;4.90;94.90;;;;;;4800986;29;91711;-69
2022/12/10 06:36:07;;;;;;;15.27;7.38;;;4.90;95.00;;;;;;4787758;29;92523;-70
2022/12/10 06:38:34;;;;;;;19.08;7.53;;;4.80;94.90;;;;;;4801366;29;93586;-69
2022/12/10 06:41:00;;;;;;;18.88;8.43;;;4.80;95.00;;;;;;4800815;29;91622;-71
2022/12/10 06:43:29;;;;;;;25.50;11.13;;;4.80;94.90;;;;;;4796817;29;90865;-70
2022/12/10 06:45:55;;;;;;;39.38;17.85;;;4.80;94.80;;;;;;4796670;29;92297;-70
2022/12/10 06:48:20;;;;;;;19.38;8.85;;;4.90;94.80;;;;;;4793026;29;92009;-71
2022/12/10 06:50:46;;;;;;;20.58;10.20;;;4.90;94.80;;;;;;4804129;29;92969;-69
2022/12/10 06:53:12;;;;;;;21.77;9.82;;;4.90;94.70;;;;;;4798207;29;92305;-70
2022/12/10 06:55:40;;;;;;;19.00;9.85;;;4.90;94.70;;;;;;4802206;29;92144;-69
2022/12/10 06:58:06;;;;;;;29.35;14.10;;;4.90;94.80;;;;;;4797674;29;93421;-69
2022/12/10 07:00:32;;;;;;;22.27;10.52;;;4.90;94.70;;;;;;4801395;29;92112;-69
2022/12/10 07:02:57;;;;;;;32.92;16.02;;;4.90;94.60;;;;;;4801957;29;91471;-69
2022/12/10 07:05:23;;;;;;;39.05;17.83;;;4.80;94.60;;;;;;4800086;29;91933;-69
2022/12/10 07:07:49;;;;;;;24.52;11.52;;;4.90;94.60;;;;;;4799436;29;91120;-69
2022/12/10 07:10:14;;;;;;;20.63;8.85;;;4.80;94.70;;;;;;4802021;29;91912;-69
2022/12/10 07:12:40;;;;;;;18.30;8.57;;;4.90;94.70;;;;;;4796477;29;91698;-69
2022/12/10 07:15:07;;;;;;;20.60;9.38;;;4.90;94.60;;;;;;4795016;29;93694;-72
2022/12/10 07:17:32;;;;;;;19.10;9.15;;;4.90;94.60;;;;;;4796399;29;93385;-71
2022/12/10 07:19:58;;;;;;;19.17;8.95;;;4.90;94.50;;;;;;4801187;29;91397;-70
2022/12/10 07:22:24;;;;;;;19.50;8.85;;;4.90;94.40;;;;;;4798885;29;92542;-70
2022/12/10 07:24:50;;;;;;;18.58;8.75;;;4.90;94.30;;;;;;4797522;29;91750;-69
2022/12/10 07:27:16;;;;;;;20.17;9.48;;;4.90;94.40;;;;;;4791251;29;94131;-70
2022/12/10 07:29:43;;;;;;;18.92;9.10;;;4.80;94.40;;;;;;4794761;29;92984;-71
2022/12/10 07:32:08;;;;;;;19.42;8.23;;;4.90;94.50;;;;;;4795888;29;91484;-71
2022/12/10 07:34:41;;;;;;;18.40;8.77;;;4.90;94.30;;;;;;4789830;29;91911;-71
2022/12/10 07:37:06;;;;;;;18.83;8.98;;;4.90;94.40;;;;;;4803652;29;91655;-71
2022/12/10 07:39:32;;;;;;;17.50;8.35;;;4.90;94.30;;;;;;4801812;29;92269;-70
2022/12/10 07:41:58;;;;;;;20.10;8.65;;;5.00;94.30;;;;;;4797084;29;91377;-70
2022/12/10 07:44:25;;;;;;;16.60;8.38;;;5.00;94.10;;;;;;4793730;29;92592;-70
2022/12/10 07:46:53;;;;;;;18.80;8.73;;;5.00;94.30;;;;;;4791752;29;92342;-70
2022/12/10 07:49:19;;;;;;;18.33;8.88;;;4.90;94.30;;;;;;4794221;29;91671;-71
2022/12/10 07:51:49;;;;;;;21.83;9.27;;;4.90;94.00;;;;;;4798325;29;91414;-71
2022/12/10 07:54:16;;;;;;;20.15;9.23;;;5.00;94.00;;;;;;4793926;29;92156;-69
2022/12/10 07:56:41;;;;;;;23.48;9.73;;;4.90;93.90;;;;;;4800142;29;91462;-70
2022/12/10 07:59:07;;;;;;;21.33;9.35;;;4.90;94.10;;;;;;4797172;29;92363;-70
2022/12/10 08:01:33;;;;;;;21.58;9.60;;;4.90;94.20;;;;;;4796931;29;92395;-70
2022/12/10 08:03:59;;;;;;;30.80;13.57;;;4.80;94.10;;;;;;4798865;29;93143;-69
2022/12/10 08:06:26;;;;;;;20.52;9.70;;;4.90;94.10;;;;;;4791476;29;92234;-69
2022/12/10 08:08:52;;;;;;;22.90;10.27;;;4.80;94.30;;;;;;4800229;29;92758;-70
2022/12/10 08:11:20;;;;;;;19.38;8.48;;;4.80;94.40;;;;;;4793498;29;92004;-70
2022/12/10 08:13:45;;;;;;;20.33;9.52;;;4.80;94.00;;;;;;4798183;29;92550;-69
2022/12/10 08:16:13;;;;;;;19.88;9.45;;;4.80;94.00;;;;;;4794532;29;91975;-71
2022/12/10 08:18:39;;;;;;;21.17;9.20;;;4.90;93.80;;;;;;4796459;29;91865;-70
2022/12/10 08:21:13;;;;;;;21.70;9.93;;;4.90;94.10;;;;;;4800287;29;90660;-71
2022/12/10 08:23:39;;;;;;;19.73;9.52;;;4.90;94.00;;;;;;4796035;29;92006;-70
2022/12/10 08:26:07;;;;;;;23.17;10.82;;;4.80;94.10;;;;;;4799208;29;91967;-70
2022/12/10 08:28:33;;;;;;;22.15;9.13;;;4.90;95.00;;;;;;4797168;29;92743;-70
2022/12/10 08:30:59;;;;;;;38.08;16.73;;;5.00;93.80;;;;;;4787122;29;91455;-70
2022/12/10 08:33:25;;;;;;;23.77;10.15;;;5.10;94.00;;;;;;4803664;29;93252;-70
2022/12/10 08:35:51;;;;;;;19.80;9.50;;;5.10;93.60;;;;;;4798283;29;92124;-70
2022/12/10 08:38:16;;;;;;;21.13;9.98;;;5.10;93.40;;;;;;4796755;29;91375;-70
2022/12/10 08:40:42;;;;;;;22.38;9.98;;;5.10;93.60;;;;;;4795844;29;91831;-70
2022/12/10 08:43:08;;;;;;;23.52;9.98;;;5.10;93.60;;;;;;4797872;29;92920;-70
2022/12/10 08:45:34;;;;;;;19.70;9.48;;;5.10;93.50;;;;;;4790704;29;92054;-70
2022/12/10 08:48:02;;;;;;;19.90;9.18;;;5.20;93.40;;;;;;4798537;29;91641;-71
2022/12/10 08:50:29;;;;;;;22.10;9.80;;;5.20;93.30;;;;;;4800642;29;91870;-72
2022/12/10 08:52:56;;;;;;;21.27;9.60;;;5.20;93.30;;;;;;4792044;29;92746;-71
2022/12/10 08:55:23;;;;;;;23.38;9.82;;;5.10;93.40;;;;;;4790439;29;94556;-72
2022/12/10 08:57:50;;;;;;;21.02;10.23;;;5.20;93.50;;;;;;4800671;29;92206;-71
2022/12/10 09:00:18;;;;;;;22.23;9.80;;;5.20;93.50;;;;;;4794851;29;91751;-71
2022/12/10 09:02:46;;;;;;;22.13;9.57;;;5.20;93.50;;;;;;4802240;29;93547;-71
2022/12/10 09:05:13;;;;;;;21.42;9.93;;;5.30;93.50;;;;;;4795002;29;91834;-71
2022/12/10 09:07:39;;;;;;;21.40;9.77;;;5.30;93.20;;;;;;4802129;29;91915;-71
2022/12/10 09:10:07;;;;;;;25.80;11.02;;;5.20;93.30;;;;;;4791950;29;91106;-71
2022/12/10 09:12:34;;;;;;;21.60;10.02;;;5.10;93.50;;;;;;4807932;29;93330;-72
2022/12/10 09:15:01;;;;;;;23.02;9.90;;;5.10;93.70;;;;;;4792826;29;91592;-71
2022/12/10 09:17:28;;;;;;;22.02;10.50;;;5.00;93.70;;;;;;4789212;29;92659;-71
2022/12/10 09:19:55;;;;;;;26.08;12.27;;;5.00;93.80;;;;;;4795569;29;92657;-71
2022/12/10 09:22:22;;;;;;;22.58;10.52;;;5.00;93.80;;;;;;4795388;29;92699;-71
2022/12/10 09:24:51;;;;;;;27.83;10.90;;;4.90;94.10;;;;;;4795684;29;92058;-71
2022/12/10 09:27:20;;;;;;;25.45;10.88;;;4.90;94.20;;;;;;4795504;29;93347;-72
2022/12/10 09:29:47;;;;;;;25.67;11.27;;;5.00;94.00;;;;;;4802331;29;92023;-72
2022/12/10 09:32:13;;;;;;;22.70;10.45;;;4.90;93.90;;;;;;4796201;29;92040;-71
2022/12/10 09:34:40;;;;;;;21.67;10.00;;;4.90;93.90;;;;;;4791886;29;92690;-71
2022/12/10 09:37:06;;;;;;;24.05;11.05;;;4.90;93.90;;;;;;4794236;29;92063;-74
2022/12/10 09:39:36;;;;;;;23.15;10.32;;;5.00;94.30;;;;;;4794978;29;92233;-72
2022/12/10 09:42:21;;;;;;;24.10;11.52;;;5.00;94.20;;;;;;4797953;29;92687;-71
2022/12/10 09:45:37;;;;;;;22.17;9.65;;;5.10;94.10;;;;;;4809386;29;96313;-71
2022/12/10 09:48:25;;;;;;;23.92;10.05;;;5.20;93.80;;;;;;4785251;29;93940;-73
2022/12/10 09:51:08;;;;;;;22.92;10.20;;;5.20;93.70;;;;;;4798112;29;91807;-74
2022/12/10 09:53:38;;;;;;;21.38;10.13;;;5.20;93.60;;;;;;4801860;29;92121;-72
2022/12/10 09:56:05;;;;;;;22.08;9.68;;;5.10;93.50;;;;;;4791528;29;93139;-72
2022/12/10 09:58:34;;;;;;;23.27;10.18;;;5.10;93.70;;;;;;4796260;29;92052;-71
2022/12/10 10:01:06;;;;;;;24.38;10.13;;;5.10;93.70;;;;;;4800313;29;91400;-71
2022/12/10 10:03:38;;;;;;;20.73;9.50;;;5.10;93.80;;;;;;4801510;29;92696;-71
2022/12/10 10:06:05;;;;;;;21.58;9.38;;;5.10;93.70;;;;;;4799412;29;91657;-71
2022/12/10 10:08:38;;;;;;;24.40;9.60;;;5.10;93.70;;;;;;4804612;29;93153;-70
2022/12/10 10:11:04;;;;;;;19.90;9.23;;;5.00;93.80;;;;;;4802339;29;91941;-70
2022/12/10 10:13:44;;;;;;;23.50;9.98;;;5.10;93.50;;;;;;4801430;29;92385;-71
2022/12/10 10:16:16;;;;;;;22.02;9.45;;;5.10;93.70;;;;;;4795146;29;92418;-70
2022/12/10 10:18:48;;;;;;;23.05;10.15;;;5.10;93.70;;;;;;4805624;29;91779;-70
2022/12/10 10:21:22;;;;;;;25.33;10.75;;;5.00;93.80;;;;;;4805809;29;91405;-70
2022/12/10 10:23:48;;;;;;;23.63;10.68;;;5.10;94.20;;;;;;4797669;29;92944;-70
2022/12/10 10:26:14;;;;;;;24.25;10.75;;;5.10;94.00;;;;;;4790102;29;91338;-71
2022/12/10 10:28:41;;;;;;;26.67;10.98;;;5.10;94.10;;;;;;4792954;29;91828;-71
2022/12/10 10:31:25;;;;;;;25.85;10.35;;;5.20;94.10;;;;;;4795456;29;91990;-70
2022/12/10 10:33:56;;;;;;;24.95;9.13;;;5.00;94.70;;;;;;4801781;29;93296;-70
2022/12/10 10:36:34;;;;;;;23.25;9.73;;;5.00;94.30;;;;;;4804634;29;92649;-71
2022/12/10 10:39:20;;;;;;;25.67;9.85;;;4.90;94.20;;;;;;4792937;29;92191;-71
2022/12/10 10:41:52;;;;;;;27.42;9.43;;;4.80;94.20;;;;;;4802582;29;91380;-71
2022/12/10 10:44:23;;;;;;;27.85;11.38;;;4.90;95.20;;;;;;4792007;29;92434;-71
2022/12/10 10:46:53;;;;;;;24.70;9.93;;;4.90;94.60;;;;;;4793858;29;91564;-73
2022/12/10 10:49:31;;;;;;;27.48;10.95;;;5.00;93.90;;;;;;4795326;29;92142;-72
2022/12/10 10:52:14;;;;;;;24.17;10.50;;;4.80;94.00;;;;;;4799098;29;91258;-72
2022/12/10 10:54:41;;;;;;;;;;;4.80;94.50;;;;;;4796866;29;92749;-72
2022/12/10 10:57:28;;;;;;;22.42;9.93;;;4.80;94.30;;;;;;4811126;29;92386;-72
2022/12/10 11:00:00;;;;;;;24.40;10.48;;;4.80;94.20;;;;;;4798923;29;94418;-72
2022/12/10 11:02:37;;;;;;;26.83;11.50;;;4.80;94.10;;;;;;4803816;29;91905;-72
2022/12/10 11:05:20;;;;;;;25.77;11.50;;;4.80;95.30;;;;;;4785923;29;91684;-72
2022/12/10 11:07:46;;;;;;;26.95;11.63;;;4.90;94.40;;;;;;4796383;29;92510;-72
2022/12/10 11:10:25;;;;;;;23.58;11.02;;;4.80;93.90;;;;;;4808755;29;91426;-73
2022/12/10 11:13:23;;;;;;;26.88;12.20;;;4.60;94.30;;;;;;4810411;29;91773;-72
2022/12/10 11:16:15;;;;;;;26.17;11.60;;;4.60;94.50;;;;;;4789995;29;94102;-72
2022/12/10 11:18:50;;;;;;;25.75;11.98;;;4.40;94.40;;;;;;4795557;29;92037;-72
2022/12/10 11:21:21;;;;;;;29.77;11.95;;;4.40;94.50;;;;;;4797041;29;91868;-72
2022/12/10 11:23:52;;;;;;;25.42;11.90;;;4.30;94.50;;;;;;4803336;29;92088;-72
2022/12/10 11:26:36;;;;;;;26.55;12.13;;;4.20;94.50;;;;;;4803732;29;93699;-72
2022/12/10 11:29:05;;;;;;;25.55;11.68;;;4.20;94.60;;;;;;4788888;29;92196;-72
2022/12/10 11:31:41;;;;;;;27.17;12.30;;;4.20;94.60;;;;;;4803838;29;91444;-72
2022/12/10 11:34:20;;;;;;;26.10;11.55;;;4.20;94.60;;;;;;4804219;29;91983;-72
2022/12/10 11:37:22;;;;;;;27.80;12.10;;;4.10;94.60;;;;;;4803032;29;92278;-72
2022/12/10 11:40:12;;;;;;;26.88;12.05;;;4.00;94.80;;;;;;4802341;29;92043;-72
2022/12/10 11:42:52;;;;;;;26.85;12.02;;;3.90;95.10;;;;;;4802626;29;91801;-72
2022/12/10 11:45:45;;;;;;;26.17;11.63;;;3.90;95.40;;;;;;4803088;29;91692;-72
2022/12/10 11:48:17;;;;;;;26.58;11.60;;;4.00;95.10;;;;;;4801675;29;92175;-72
2022/12/10 11:50:56;;;;;;;27.00;11.98;;;4.00;95.10;;;;;;4802714;29;92072;-72
2022/12/10 11:53:39;;;;;;;23.75;11.30;;;4.10;95.30;;;;;;4801633;29;92761;-72
2022/12/10 11:56:33;;;;;;;25.55;11.40;;;4.20;95.00;;;;;;4802995;29;91802;-72
2022/12/10 11:59:11;;;;;;;25.90;12.02;;;4.20;94.80;;;;;;4784317;29;92118;-72
2022/12/10 12:01:46;;;;;;;23.65;10.73;;;4.20;95.20;;;;;;4783425;29;91551;-72
2022/12/10 12:04:21;;;;;;;21.00;9.98;;;4.20;94.90;;;;;;4787406;29;91557;-72
2022/12/10 12:07:22;;;;;;;25.02;10.60;;;4.10;94.90;;;;;;4802204;29;91845;-72
2022/12/10 12:10:20;;;;;;;25.30;10.40;;;4.20;94.70;;;;;;4781817;29;91640;-72
2022/12/10 12:12:54;;;;;;;24.60;10.80;;;4.10;94.70;;;;;;4805000;29;91623;-72
2022/12/10 12:15:43;;;;;;;21.85;10.57;;;4.20;94.60;;;;;;4820569;29;91763;-72
2022/12/10 12:18:25;;;;;;;25.63;10.75;;;4.10;94.60;;;;;;4785544;29;93275;-72
2022/12/10 12:20:58;;;;;;;22.85;10.63;;;4.10;94.60;;;;;;4801395;29;92850;-72
2022/12/10 12:23:49;;;;;;;23.52;10.77;;;4.00;94.60;;;;;;4802278;29;93026;-72
2022/12/10 12:26:20;;;;;;;27.10;11.57;;;4.00;94.80;;;;;;4802463;29;91340;-72
2022/12/10 12:29:00;;;;;;;23.42;11.48;;;4.10;94.70;;;;;;4801496;29;91532;-72
2022/12/10 12:31:34;;;;;;;23.95;11.07;;;4.10;94.40;;;;;;4801973;29;91987;-72
2022/12/10 12:34:28;;;;;;;23.45;10.65;;;4.10;94.50;;;;;;4801726;29;92011;-72
2022/12/10 12:36:54;;;;;;;22.67;10.30;;;4.10;94.10;;;;;;4801703;29;92032;-72
2022/12/10 12:39:46;;;;;;;21.75;10.15;;;4.00;94.30;;;;;;4802348;29;91226;-72
2022/12/10 12:42:27;;;;;;;21.42;9.73;;;3.90;94.10;;;;;;4793913;29;92364;-72
2022/12/10 12:45:14;;;;;;;20.98;10.05;;;3.90;94.30;;;;;;4802824;29;92280;-72
2022/12/10 12:47:48;;;;;;;26.02;10.48;;;3.90;94.40;;;;;;4801540;29;92659;-72
2022/12/10 12:50:41;;;;;;;22.90;10.38;;;4.00;94.40;;;;;;4802397;29;92068;-72
2022/12/10 12:53:11;;;;;;;22.35;9.85;;;4.00;94.40;;;;;;4801646;29;92328;-72
2022/12/10 12:56:05;;;;;;;21.85;10.77;;;3.90;94.60;;;;;;4801761;29;91277;-72
2022/12/10 12:58:40;;;;;;;25.98;10.60;;;3.90;94.70;;;;;;4800270;29;91913;-72
2022/12/10 13:01:41;;;;;;;21.25;9.98;;;3.90;94.70;;;;;;4801570;29;92018;-72
2022/12/10 13:04:07;;;;;;;24.45;11.80;;;3.90;94.50;;;;;;4787758;29;91850;-72
2022/12/10 13:06:38;;;;;;;27.73;13.30;;;3.90;94.50;;;;;;4800952;29;91246;-72
2022/12/10 13:09:12;;;;;;;24.38;11.25;;;3.90;94.60;;;;;;4801711;29;91716;-72
2022/12/10 13:12:04;;;;;;;20.83;10.02;;;3.90;94.40;;;;;;4817422;29;91753;-72
2022/12/10 13:14:48;;;;;;;18.50;9.73;;;3.80;94.50;;;;;;4819128;29;93244;-72
2022/12/10 13:17:14;;;;;;;18.45;9.50;;;3.80;94.70;;;;;;4802903;29;93012;-72
2022/12/10 13:19:41;;;;;;;20.10;9.15;;;3.90;94.50;;;;;;4802474;29;92429;-72
2022/12/10 13:22:32;;;;;;;19.23;8.40;;;3.80;94.60;;;;;;4802537;29;91375;-72
2022/12/10 13:25:15;;;;;;;17.30;8.48;;;3.80;94.40;;;;;;4801536;29;92171;-72
2022/12/10 13:27:53;;;;;;;21.27;9.65;;;3.70;94.50;;;;;;4783755;29;91425;-72
2022/12/10 13:30:31;;;;;;;20.42;9.30;;;3.70;94.50;;;;;;4784123;29;91437;-72
2022/12/10 13:33:16;;;;;;;17.10;8.05;;;3.70;94.50;;;;;;4797519;29;90719;-72
2022/12/10 13:35:57;;;;;;;19.67;8.65;;;3.70;94.70;;;;;;4804040;29;92401;-73
2022/12/10 13:38:26;;;;;;;20.48;9.07;;;3.70;94.60;;;;;;4804977;29;91789;-72
2022/12/10 13:46:52;;;;;;;20.13;8.63;;;3.80;94.50;;;;;;4798791;29;92023;-72
2022/12/10 13:49:25;;;;;;;19.50;8.57;;;3.70;94.40;;;;;;4804935;29;91836;-72
2022/12/10 13:52:00;;;;;;;17.90;8.63;;;3.70;94.50;;;;;;4805384;29;92058;-72
2022/12/10 13:54:28;;;;;;;16.50;7.60;;;3.70;94.50;;;;;;4805336;29;91747;-72
2022/12/10 13:57:15;;;;;;;17.25;8.50;;;3.70;94.50;;;;;;4803813;29;91770;-72
2022/12/10 14:00:14;;;;;;;19.05;8.23;;;3.60;94.60;;;;;;4805358;29;92264;-72
2022/12/10 14:02:58;;;;;;;21.73;8.23;;;3.60;94.70;;;;;;4804522;29;95068;-72
2022/12/10 14:05:42;;;;;;;;;;;3.60;94.80;;;;;;4804815;29;92089;-72
2022/12/10 14:08:16;;;;;;;20.38;8.73;;;3.60;94.80;;;;;;4805178;29;93051;-72
2022/12/10 14:10:42;;;;;;;19.85;8.13;;;3.60;95.00;;;;;;4812792;29;92149;-72
2022/12/10 14:13:13;;;;;;;18.52;8.65;;;3.60;94.50;;;;;;4823172;29;91763;-72
2022/12/10 14:15:40;;;;;;;20.23;8.75;;;3.60;94.80;;;;;;4805544;29;91631;-72
2022/12/10 14:18:14;;;;;;;16.30;7.15;;;3.60;94.50;;;;;;4804787;29;92119;-73
2022/12/10 14:20:45;;;;;;;18.30;7.18;;;3.60;94.50;;;;;;4804677;29;91340;-71
2022/12/10 14:23:40;;;;;;;14.80;7.63;;;3.60;94.20;;;;;;4804878;29;92057;-73
2022/12/10 14:26:25;;;;;;;16.75;6.80;;;3.60;94.20;;;;;;4786458;29;91002;-72
2022/12/10 14:28:58;;;;;;;15.57;7.22;;;3.50;94.30;;;;;;4803705;29;92610;-72
2022/12/10 14:31:36;;;;;;;19.67;9.30;;;3.50;94.30;;;;;;4804144;29;91606;-72
2022/12/10 14:34:06;;;;;;;46.53;15.77;;;3.40;94.10;;;;;;4803564;29;92884;-72
2022/12/10 14:36:44;;;;;;;17.70;7.63;;;3.50;94.20;;;;;;4803626;29;91800;-72
2022/12/10 14:39:32;;;;;;;20.40;8.77;;;3.40;94.40;;;;;;4804470;29;92270;-72
2022/12/10 14:42:01;;;;;;;16.75;7.82;;;3.40;94.60;;;;;;4802688;29;92505;-72
2022/12/10 14:44:29;;;;;;;20.85;8.73;;;3.40;94.30;;;;;;4803391;29;91717;-72
2022/12/10 14:47:24;;;;;;;19.40;8.50;;;3.30;94.30;;;;;;4803882;29;92169;-72
2022/12/10 14:49:52;;;;;;;15.15;6.57;;;3.30;94.20;;;;;;4794925;29;95031;-72
2022/12/10 14:52:31;;;;;;;17.30;7.50;;;3.30;94.40;;;;;;4803849;29;91178;-72
2022/12/10 14:54:57;;;;;;;18.45;7.40;;;3.30;94.30;;;;;;4804521;29;91716;-72
2022/12/10 14:57:31;;;;;;;20.58;8.95;;;3.30;94.20;;;;;;4804167;29;91679;-72
2022/12/10 14:59:56;;;;;;;19.35;8.68;;;3.20;94.40;;;;;;4812743;29;93271;-72
2022/12/10 15:02:34;;;;;;;16.27;7.38;;;3.20;94.30;;;;;;4811398;29;92164;-72
2022/12/10 15:05:00;;;;;;;13.95;6.22;;;3.20;94.40;;;;;;4804256;29;91406;-72
2022/12/10 15:07:34;;;;;;;15.48;6.45;;;3.10;94.50;;;;;;4803722;29;91300;-72
2022/12/10 15:10:04;;;;;;;14.35;6.00;;;3.00;94.40;;;;;;4804991;29;95316;-72
2022/12/10 15:12:38;;;;;;;13.60;5.63;;;3.00;94.50;;;;;;4808346;29;93801;-72
2022/12/10 15:15:11;;;;;;;15.38;6.30;;;2.90;94.40;;;;;;4802231;29;91322;-72
2022/12/10 15:17:41;;;;;;;13.15;5.50;;;2.90;94.60;;;;;;4796675;29;90783;-72
2022/12/10 15:20:24;;;;;;;12.95;5.97;;;2.90;94.60;;;;;;4805117;29;91629;-72
2022/12/10 15:22:50;;;;;;;12.57;5.38;;;2.90;94.70;;;;;;4803566;29;92120;-72
2022/12/10 15:25:28;;;;;;;15.25;6.90;;;2.90;94.30;;;;;;4820087;29;92308;-72
2022/12/10 15:28:00;;;;;;;12.25;5.63;;;2.80;94.40;;;;;;4809044;29;91382;-72
2022/12/10 15:30:39;;;;;;;11.23;4.90;;;2.70;94.50;;;;;;4803368;29;92301;-72
2022/12/10 15:33:37;;;;;;;14.80;5.93;;;2.80;94.70;;;;;;4803779;29;91829;-72
2022/12/10 15:36:04;;;;;;;14.07;5.88;;;2.70;94.80;;;;;;4803120;29;91458;-72
2022/12/10 15:38:30;;;;;;;12.70;5.63;;;2.70;95.00;;;;;;4801328;29;91351;-72
2022/12/10 15:41:38;;;;;;;12.13;5.13;;;2.60;95.30;;;;;;4802747;29;92118;-72
2022/12/10 15:44:16;;;;;;;12.45;5.53;;;2.70;95.10;;;;;;4785724;29;91978;-72
2022/12/10 15:46:57;;;;;;;11.98;4.97;;;2.70;94.90;;;;;;4785817;29;92097;-72
2022/12/10 15:49:22;;;;;;;12.77;5.90;;;2.70;95.00;;;;;;4803176;29;91416;-72
2022/12/10 15:51:48;;;;;;;11.98;5.05;;;2.80;95.00;;;;;;4802521;29;93024;-72
2022/12/10 15:54:35;;;;;;;13.30;5.05;;;2.70;94.80;;;;;;4802854;29;92617;-72
2022/12/10 15:57:22;;;;;;;10.38;4.68;;;2.80;95.00;;;;;;4801353;29;91384;-72
2022/12/10 15:59:50;;;;;;;12.00;4.90;;;2.70;94.60;;;;;;4821616;29;91324;-72
2022/12/10 16:02:41;;;;;;;12.50;4.95;;;2.70;94.70;;;;;;4820920;29;92284;-72
2022/12/10 16:05:10;;;;;;;11.43;4.55;;;2.80;94.80;;;;;;4821447;29;91880;-72
2022/12/10 16:07:36;;;;;;;10.82;4.35;;;2.70;94.80;;;;;;4812329;29;91875;-72
2022/12/10 16:10:02;;;;;;;12.85;5.57;;;2.70;94.80;;;;;;4807247;29;90784;-72
2022/12/10 16:12:28;;;;;;;10.75;4.75;;;2.70;94.80;;;;;;4804260;29;92192;-72
2022/12/10 16:14:59;;;;;;;11.82;4.90;;;2.70;94.60;;;;;;4802479;29;91799;-72
2022/12/10 16:17:29;;;;;;;11.27;5.05;;;2.70;94.70;;;;;;4802382;29;92988;-72
2022/12/10 16:20:26;;;;;;;11.23;4.68;;;2.70;94.70;;;;;;4822754;29;91549;-72
2022/12/10 16:22:54;;;;;;;12.45;4.97;;;2.70;94.80;;;;;;4822702;29;92240;-72
2022/12/10 16:25:20;;;;;;;12.07;4.90;;;2.70;94.80;;;;;;4822255;29;92845;-72
2022/12/10 16:27:46;;;;;;;11.32;4.80;;;2.70;95.00;;;;;;4811629;29;91598;-72
2022/12/10 16:30:17;;;;;;;12.02;4.97;;;2.70;94.90;;;;;;4803159;29;91395;-72
2022/12/10 16:32:44;;;;;;;12.73;5.40;;;2.60;94.80;;;;;;4802328;29;92301;-72
2022/12/10 16:35:13;;;;;;;13.43;5.78;;;2.70;94.80;;;;;;4802758;29;91280;-72
2022/12/10 16:37:43;;;;;;;13.30;5.30;;;2.70;94.70;;;;;;4801317;29;91494;-72
2022/12/10 16:40:10;;;;;;;11.95;5.00;;;2.70;94.70;;;;;;4802733;29;91367;-72
2022/12/10 16:42:36;;;;;;;11.63;5.20;;;2.70;94.90;;;;;;4802044;29;93208;-72
2022/12/10 16:45:02;;;;;;;12.40;5.10;;;2.70;94.70;;;;;;4802868;29;92185;-72
2022/12/10 16:47:28;;;;;;;13.30;5.35;;;2.70;94.60;;;;;;4800727;29;91438;-72
2022/12/10 16:49:53;;;;;;;14.90;5.65;;;2.70;94.60;;;;;;4821355;29;91781;-72
2022/12/10 16:52:19;;;;;;;12.05;5.13;;;2.70;94.70;;;;;;4809742;29;92246;-72
2022/12/10 16:54:44;;;;;;;12.45;5.38;;;2.80;94.60;;;;;;4802506;29;92100;-72
2022/12/10 16:57:15;;;;;;;12.60;5.05;;;2.80;94.50;;;;;;4800481;29;92044;-72
2022/12/10 16:59:41;;;;;;;13.63;4.68;;;2.80;94.40;;;;;;4810783;29;90645;-72
2022/12/10 17:02:25;;;;;;;12.85;4.95;;;2.80;94.20;;;;;;4802130;29;91738;-72
2022/12/10 17:04:50;;;;;;;10.63;4.10;;;2.80;94.20;;;;;;4802385;29;91908;-72
2022/12/10 17:07:16;;;;;;;12.15;5.05;;;2.80;94.30;;;;;;4803776;29;92661;-72
2022/12/10 17:09:42;;;;;;;11.27;5.47;;;2.80;93.90;;;;;;4823942;29;91611;-72
2022/12/10 17:12:08;;;;;;;11.05;4.80;;;2.80;93.90;;;;;;4818223;29;93371;-72
2022/12/10 17:14:38;;;;;;;10.38;4.35;;;2.80;94.00;;;;;;4805306;29;92171;-72
2022/12/10 17:17:06;;;;;;;10.73;5.13;;;2.80;93.80;;;;;;4804502;29;91362;-72
2022/12/10 17:19:35;;;;;;;12.82;5.60;;;2.80;93.50;;;;;;4805338;29;91787;-72
2022/12/10 17:22:01;;;;;;;13.02;4.68;;;2.80;93.50;;;;;;4805822;29;92310;-72
2022/12/10 17:24:27;;;;;;;10.98;4.80;;;2.80;93.20;;;;;;4805385;29;91426;-72
2022/12/10 17:26:55;;;;;;;10.88;5.25;;;2.90;93.40;;;;;;4804899;29;91450;-72
2022/12/10 17:29:32;;;;;;;9.25;4.03;;;2.90;93.20;;;;;;4805301;29;91568;-72
2022/12/10 17:31:58;;;;;;;11.95;4.30;;;2.90;93.00;;;;;;4805534;29;93253;-72